Time;durP1;ratioP1;P1;durP2;ratioP2;P2;SDS_P1;SDS_P2;PMS_P1;PMS_P2;Temp;Humidity;BMP_temperature;BMP_pressure;BME280_temperature;BME280_humidity;BME280_pressure;Samples;Min_cycle;Max_cycle;Signal;HPM_P1;HPM_P2
2023/07/17 00:00:12;;;;;;;4.50;3.65;;;;;;;;;;5047562;28;20025;-77
2023/07/17 00:02:38;;;;;;;3.20;2.97;;;;;;;;;;5031069;28;20437;-78
2023/07/17 00:05:04;;;;;;;3.33;3.03;;;;;;;;;;5028155;28;20326;-77
2023/07/17 00:07:30;;;;;;;4.18;3.70;;;;;;;;;;5031310;28;20437;-78
2023/07/17 00:09:55;;;;;;;3.90;3.60;;;;;;;;;;5031698;28;20048;-77
2023/07/17 00:12:21;;;;;;;4.28;3.88;;;;;;;;;;5032717;28;20021;-78
2023/07/17 00:14:46;;;;;;;4.50;4.10;;;;;;;;;;5031019;28;20060;-78
2023/07/17 00:17:12;;;;;;;6.75;4.50;;;;;;;;;;5030757;28;20021;-78
2023/07/17 00:19:38;;;;;;;5.18;4.30;;;;;;;;;;5047821;28;20156;-78
2023/07/17 00:22:04;;;;;;;5.57;3.92;;;;;;;;;;5028340;28;20090;-78
2023/07/17 00:24:30;;;;;;;6.75;4.15;;;;;;;;;;5047401;28;20063;-79
2023/07/17 00:26:55;;;;;;;6.65;3.92;;;;;;;;;;5049055;28;20033;-79
2023/07/17 00:29:21;;;;;;;4.22;3.83;;;;;;;;;;5048372;28;20026;-78
2023/07/17 00:31:46;;;;;;;7.70;4.30;;;;;;;;;;5028552;28;20026;-79
2023/07/17 00:34:11;;;;;;;5.20;3.97;;;;;;;;;;5045675;28;20040;-79
2023/07/17 00:36:37;;;;;;;5.22;4.13;;;;;;;;;;5030496;28;20056;-77
2023/07/17 00:39:03;;;;;;;5.80;4.10;;;;;;;;;;5025887;28;20013;-78
2023/07/17 00:41:29;;;;;;;5.47;4.05;;;;;;;;;;5047352;28;20104;-78
2023/07/17 00:43:54;;;;;;;8.35;4.13;;;;;;;;;;5030415;28;20069;-79
2023/07/17 00:46:19;;;;;;;10.85;3.67;;;;;;;;;;5048089;28;20022;-80
2023/07/17 00:48:45;;;;;;;10.18;4.10;;;;;;;;;;5049478;28;20097;-79
2023/07/17 00:51:10;;;;;;;6.00;4.38;;;;;;;;;;5031279;28;20033;-78
2023/07/17 00:53:36;;;;;;;4.30;3.58;;;;;;;;;;5029405;28;20087;-78
2023/07/17 00:56:01;;;;;;;8.27;4.00;;;;;;;;;;5029590;28;20026;-78
2023/07/17 00:58:27;;;;;;;4.95;4.18;;;;;;;;;;5030206;28;20040;-78
2023/07/17 01:00:52;;;;;;;5.20;3.67;;;;;;;;;;5044669;28;20017;-79
2023/07/17 01:03:18;;;;;;;8.70;3.88;;;;;;;;;;5041940;28;20033;-78
2023/07/17 01:05:43;;;;;;;6.53;4.05;;;;;;;;;;5035043;28;20018;-78
2023/07/17 01:08:08;;;;;;;5.00;4.50;;;;;;;;;;5031628;28;20402;-78
2023/07/17 01:10:34;;;;;;;6.60;4.38;;;;;;;;;;5016739;28;20029;-77
2023/07/17 01:12:59;;;;;;;4.32;3.70;;;;;;;;;;5019128;28;20025;-79
2023/07/17 01:15:25;;;;;;;4.63;3.78;;;;;;;;;;5031046;28;20044;-79
2023/07/17 01:17:50;;;;;;;7.65;4.00;;;;;;;;;;5022911;28;20022;-79
2023/07/17 01:20:15;;;;;;;6.35;4.05;;;;;;;;;;5032079;28;20021;-79
2023/07/17 01:23:07;;;;;;;4.63;4.10;;;;;;;;;;5016090;28;20481;-79
2023/07/17 01:25:33;;;;;;;5.53;4.35;;;;;;;;;;5029303;28;20501;-78
2023/07/17 01:27:58;;;;;;;5.07;4.32;;;;;;;;;;5016383;28;20388;-78
2023/07/17 01:30:24;;;;;;;6.57;4.40;;;;;;;;;;5017147;28;20018;-78
2023/07/17 01:32:49;;;;;;;4.72;4.25;;;;;;;;;;5021771;28;20196;-79
2023/07/17 01:35:15;;;;;;;6.72;4.57;;;;;;;;;;5017733;28;20018;-79
2023/07/17 01:37:42;;;;;;;7.93;4.55;;;;;;;;;;5033462;28;20059;-79
2023/07/17 01:40:09;;;;;;;9.38;4.60;;;;;;;;;;5011955;28;20025;-79
2023/07/17 01:42:34;;;;;;;6.57;4.60;;;;;;;;;;5035300;28;20055;-78
2023/07/17 01:45:00;;;;;;;11.57;4.65;;;;;;;;;;5045355;28;20033;-78
2023/07/17 01:47:25;;;;;;;7.35;4.28;;;;;;;;;;5026671;28;20056;-78
2023/07/17 01:49:51;;;;;;;6.18;4.65;;;;;;;;;;5042242;28;20997;-79
2023/07/17 01:52:16;;;;;;;4.57;3.97;;;;;;;;;;5029498;28;20029;-77
2023/07/17 01:54:41;;;;;;;5.30;4.22;;;;;;;;;;5032736;28;20084;-79
2023/07/17 01:57:07;;;;;;;9.60;4.65;;;;;;;;;;5030725;28;20029;-79
2023/07/17 01:59:32;;;;;;;5.70;4.10;;;;;;;;;;5014370;28;20028;-79
2023/07/17 02:01:58;;;;;;;5.75;4.43;;;;;;;;;;5024306;28;20535;-79
2023/07/17 02:04:23;;;;;;;7.68;4.25;;;;;;;;;;5040366;28;20021;-79
2023/07/17 02:06:48;;;;;;;5.38;4.18;;;;;;;;;;5031639;28;20025;-79
2023/07/17 02:09:13;;;;;;;5.40;4.28;;;;;;;;;;5044467;28;20021;-79
2023/07/17 02:11:39;;;;;;;7.05;4.35;;;;;;;;;;5042796;28;20050;-79
2023/07/17 02:14:04;;;;;;;7.50;4.15;;;;;;;;;;5030142;28;20367;-79
2023/07/17 02:16:30;;;;;;;5.10;4.22;;;;;;;;;;5045586;28;20029;-78
2023/07/17 02:18:55;;;;;;;5.53;4.38;;;;;;;;;;5045589;28;20444;-78
2023/07/17 02:21:20;;;;;;;4.50;4.10;;;;;;;;;;5040715;28;20349;-79
2023/07/17 02:23:46;;;;;;;4.00;3.67;;;;;;;;;;5028190;28;20048;-79
2023/07/17 02:26:11;;;;;;;5.35;4.07;;;;;;;;;;5029852;28;20017;-79
2023/07/17 02:28:37;;;;;;;6.07;4.35;;;;;;;;;;5046909;28;20395;-81
2023/07/17 02:31:02;;;;;;;8.50;4.47;;;;;;;;;;5046102;28;20029;-78
2023/07/17 02:33:28;;;;;;;5.32;4.40;;;;;;;;;;5025621;28;20048;-78
2023/07/17 02:35:53;;;;;;;3.97;3.50;;;;;;;;;;5017089;28;20029;-78
2023/07/17 02:38:18;;;;;;;5.07;3.95;;;;;;;;;;5031892;28;20022;-78
2023/07/17 02:40:44;;;;;;;5.60;3.97;;;;;;;;;;5032641;28;20025;-79
2023/07/17 02:43:09;;;;;;;4.40;4.05;;;;;;;;;;5034675;28;20026;-79
2023/07/17 02:45:36;;;;;;;7.05;4.13;;;;;;;;;;5029156;28;20323;-78
2023/07/17 02:48:03;;;;;;;8.60;4.30;;;;;;;;;;5031198;28;20037;-79
2023/07/17 02:50:29;;;;;;;6.80;4.30;;;;;;;;;;5040127;28;20639;-80
2023/07/17 02:52:54;;;;;;;5.53;4.70;;;;;;;;;;5045965;28;20029;-79
2023/07/17 02:55:19;;;;;;;8.02;5.00;;;;;;;;;;5020236;28;20070;-79
2023/07/17 02:57:44;;;;;;;9.43;4.05;;;;;;;;;;5034601;28;20441;-79
2023/07/17 03:00:14;;;;;;;9.60;5.20;;;;;;;;;;5023839;28;20052;-84
2023/07/17 03:02:42;;;;;;;7.82;5.03;;;;;;;;;;5024454;28;20104;-82
2023/07/17 03:05:08;;;;;;;13.13;5.53;;;;;;;;;;5033915;28;20018;-81
2023/07/17 03:07:35;;;;;;;7.07;5.20;;;;;;;;;;5017301;28;20068;-81
2023/07/17 03:10:01;;;;;;;9.35;5.28;;;;;;;;;;5022302;28;20486;-79
2023/07/17 03:12:26;;;;;;;13.32;6.50;;;;;;;;;;5019139;28;20018;-81
2023/07/17 03:14:51;;;;;;;11.50;6.18;;;;;;;;;;5019851;28;20343;-82
2023/07/17 03:17:17;;;;;;;7.80;5.75;;;;;;;;;;5046535;28;20087;-80
2023/07/17 03:19:42;;;;;;;10.73;6.93;;;;;;;;;;5041699;28;20622;-80
2023/07/17 03:22:07;;;;;;;7.55;6.15;;;;;;;;;;5036484;28;20034;-81
2023/07/17 03:24:33;;;;;;;9.95;6.13;;;;;;;;;;5032261;28;20590;-80
2023/07/17 03:26:58;;;;;;;8.15;6.65;;;;;;;;;;5045310;28;20611;-81
2023/07/17 03:29:25;;;;;;;9.60;6.60;;;;;;;;;;5042594;28;20026;-81
2023/07/17 03:31:51;;;;;;;9.60;6.97;;;;;;;;;;5046796;28;20157;-82
2023/07/17 03:34:16;;;;;;;10.45;7.07;;;;;;;;;;5042642;28;20053;-80
2023/07/17 03:36:41;;;;;;;9.63;6.28;;;;;;;;;;5047832;28;20462;-79
2023/07/17 03:39:06;;;;;;;15.00;6.88;;;;;;;;;;5032857;28;20033;-81
2023/07/17 03:41:32;;;;;;;17.08;7.95;;;;;;;;;;5042834;28;20044;-79
2023/07/17 03:43:59;;;;;;;14.45;7.30;;;;;;;;;;5031498;28;20144;-79
2023/07/17 03:46:25;;;;;;;12.38;6.95;;;;;;;;;;5044015;28;20382;-79
2023/07/17 03:48:50;;;;;;;15.90;7.82;;;;;;;;;;5052430;28;21222;-79
2023/07/17 03:51:15;;;;;;;10.13;7.35;;;;;;;;;;5046226;28;20026;-78
2023/07/17 03:53:41;;;;;;;12.38;7.18;;;;;;;;;;5046319;28;20487;-80
2023/07/17 03:56:06;;;;;;;10.77;6.97;;;;;;;;;;5049499;28;20093;-80
2023/07/17 03:58:31;;;;;;;13.23;6.65;;;;;;;;;;5032895;28;20419;-80
2023/07/17 04:00:57;;;;;;;12.68;7.30;;;;;;;;;;5045306;28;20040;-80
2023/07/17 04:03:24;;;;;;;15.40;7.70;;;;;;;;;;5043851;28;20022;-79
2023/07/17 04:05:49;;;;;;;10.15;7.20;;;;;;;;;;5027332;28;20014;-79
2023/07/17 04:08:15;;;;;;;11.77;7.93;;;;;;;;;;5040194;28;20330;-79
2023/07/17 04:10:40;;;;;;;14.80;8.40;;;;;;;;;;5042892;28;20101;-79
2023/07/17 04:13:05;;;;;;;10.93;8.27;;;;;;;;;;5039066;28;20044;-78
2023/07/17 04:15:31;;;;;;;14.13;8.60;;;;;;;;;;5029283;28;20113;-76
2023/07/17 04:17:56;;;;;;;14.63;7.43;;;;;;;;;;5043969;28;20028;-79
2023/07/17 04:20:21;;;;;;;11.45;7.18;;;;;;;;;;5026606;28;20575;-79
2023/07/17 04:22:47;;;;;;;8.82;6.97;;;;;;;;;;5045360;28;20029;-79
2023/07/17 04:25:12;;;;;;;9.38;7.03;;;;;;;;;;5047594;28;20294;-79
2023/07/17 04:27:37;;;;;;;15.35;7.82;;;;;;;;;;5046057;28;20398;-79
2023/07/17 04:30:04;;;;;;;11.15;7.43;;;;;;;;;;5030908;28;20367;-80
2023/07/17 04:32:29;;;;;;;11.38;7.47;;;;;;;;;;5031594;28;20021;-80
2023/07/17 04:34:56;;;;;;;11.45;7.70;;;;;;;;;;5031875;28;20112;-80
2023/07/17 04:37:22;;;;;;;11.82;7.53;;;;;;;;;;5046360;28;20021;-79
2023/07/17 04:39:47;;;;;;;10.52;7.13;;;;;;;;;;5049069;28;20123;-80
2023/07/17 04:42:13;;;;;;;11.95;7.50;;;;;;;;;;5048431;28;20049;-80
2023/07/17 04:44:38;;;;;;;13.15;7.85;;;;;;;;;;5032221;28;20502;-79
2023/07/17 04:47:04;;;;;;;15.80;7.80;;;;;;;;;;5035370;28;20067;-78
2023/07/17 04:49:29;;;;;;;9.80;6.78;;;;;;;;;;5048328;28;20482;-80
2023/07/17 04:51:55;;;;;;;18.33;7.15;;;;;;;;;;5035184;28;20504;-79
2023/07/17 04:54:20;;;;;;;11.63;6.60;;;;;;;;;;5045777;28;20476;-78
2023/07/17 04:56:45;;;;;;;10.68;7.40;;;;;;;;;;5032672;28;20034;-79
2023/07/17 04:59:11;;;;;;;10.20;6.65;;;;;;;;;;5030955;28;20021;-79
2023/07/17 05:01:36;;;;;;;13.05;6.45;;;;;;;;;;5046335;28;20060;-79
2023/07/17 05:04:01;;;;;;;10.25;6.85;;;;;;;;;;5035461;28;20018;-78
2023/07/17 05:06:29;;;;;;;13.18;6.72;;;;;;;;;;5045644;28;20017;-79
2023/07/17 05:08:54;;;;;;;7.88;6.22;;;;;;;;;;5026162;28;20033;-79
2023/07/17 05:11:19;;;;;;;7.07;5.50;;;;;;;;;;5025732;28;20029;-78
2023/07/17 05:13:45;;;;;;;9.25;5.10;;;;;;;;;;5024301;28;20044;-78
2023/07/17 05:16:10;;;;;;;7.00;5.28;;;;;;;;;;5045918;28;20029;-78
2023/07/17 05:18:35;;;;;;;7.78;5.35;;;;;;;;;;5042463;28;20037;-78
2023/07/17 05:21:01;;;;;;;8.60;5.07;;;;;;;;;;5029647;28;20029;-77
2023/07/17 05:23:26;;;;;;;6.40;4.65;;;;;;;;;;5041454;28;20048;-77
2023/07/17 05:25:54;;;;;;;10.45;5.07;;;;;;;;;;5025472;28;20024;-77
2023/07/17 05:28:20;;;;;;;9.07;5.00;;;;;;;;;;5038242;28;20504;-78
2023/07/17 05:30:45;;;;;;;7.40;4.72;;;;;;;;;;5039490;28;20029;-77
2023/07/17 05:33:10;;;;;;;11.88;4.22;;;;;;;;;;5026221;28;20022;-78
2023/07/17 05:35:35;;;;;;;7.55;4.10;;;;;;;;;;5044529;28;20018;-78
2023/07/17 05:38:01;;;;;;;11.25;4.55;;;;;;;;;;5029248;28;20076;-77
2023/07/17 05:40:26;;;;;;;6.78;4.43;;;;;;;;;;5042446;28;20021;-77
2023/07/17 05:42:52;;;;;;;7.60;4.30;;;;;;;;;;5036104;28;20017;-78
2023/07/17 05:45:17;;;;;;;8.13;4.22;;;;;;;;;;5040028;28;20043;-78
2023/07/17 05:47:42;;;;;;;8.70;3.95;;;;;;;;;;5037763;28;20040;-78
2023/07/17 05:50:09;;;;;;;8.23;4.25;;;;;;;;;;5022973;28;20381;-76
2023/07/17 05:52:35;;;;;;;8.60;4.22;;;;;;;;;;5021994;28;20076;-78
2023/07/17 05:55:00;;;;;;;5.28;3.63;;;;;;;;;;5022679;28;20041;-78
2023/07/17 05:57:25;;;;;;;7.70;3.60;;;;;;;;;;5023325;28;20047;-77
2023/07/17 05:59:50;;;;;;;5.88;3.50;;;;;;;;;;5027851;28;20028;-79
2023/07/17 06:02:16;;;;;;;7.45;3.72;;;;;;;;;;5014333;28;20030;-77
2023/07/17 06:04:41;;;;;;;6.05;3.80;;;;;;;;;;5016912;28;20493;-77
2023/07/17 06:07:07;;;;;;;4.65;3.60;;;;;;;;;;5023281;28;20057;-77
2023/07/17 06:09:34;;;;;;;6.70;3.72;;;;;;;;;;5025018;28;20100;-78
2023/07/17 06:12:00;;;;;;;5.25;3.67;;;;;;;;;;5029178;28;20029;-78
2023/07/17 06:14:25;;;;;;;6.43;3.67;;;;;;;;;;5027828;28;20026;-78
2023/07/17 06:16:50;;;;;;;5.35;3.58;;;;;;;;;;5026405;28;20022;-77
2023/07/17 06:19:16;;;;;;;6.55;3.90;;;;;;;;;;5017665;28;20025;-77
2023/07/17 06:21:41;;;;;;;6.65;3.80;;;;;;;;;;5020246;28;20371;-77
2023/07/17 06:24:07;;;;;;;8.75;3.65;;;;;;;;;;5016870;28;20081;-77
2023/07/17 06:26:36;;;;;;;7.43;3.85;;;;;;;;;;5018920;28;20036;-78
2023/07/17 06:29:03;;;;;;;5.10;3.70;;;;;;;;;;5016041;28;20053;-77
2023/07/17 06:31:28;;;;;;;9.50;3.70;;;;;;;;;;5028310;28;20030;-77
2023/07/17 06:33:53;;;;;;;6.47;3.72;;;;;;;;;;5036113;28;20450;-76
2023/07/17 06:36:19;;;;;;;3.90;3.50;;;;;;;;;;5016922;28;20026;-77
2023/07/17 06:38:44;;;;;;;5.05;3.33;;;;;;;;;;5015721;28;20033;-77
2023/07/17 06:41:10;;;;;;;5.43;3.22;;;;;;;;;;5020523;28;20147;-78
2023/07/17 06:43:35;;;;;;;8.73;3.85;;;;;;;;;;5017489;28;20037;-78
2023/07/17 06:46:00;;;;;;;5.03;3.42;;;;;;;;;;5018648;28;20718;-77
2023/07/17 06:48:25;;;;;;;6.50;3.80;;;;;;;;;;5016566;28;20052;-77
2023/07/17 06:50:51;;;;;;;4.82;3.83;;;;;;;;;;5035196;28;20030;-77
2023/07/17 06:53:16;;;;;;;6.57;3.40;;;;;;;;;;5017851;28;20030;-77
2023/07/17 06:55:41;;;;;;;3.88;3.47;;;;;;;;;;5010651;28;20053;-77
2023/07/17 06:58:07;;;;;;;5.68;3.13;;;;;;;;;;5013243;28;20025;-77
2023/07/17 07:00:32;;;;;;;3.90;3.05;;;;;;;;;;5011758;28;20065;-78
2023/07/17 07:02:58;;;;;;;7.97;3.17;;;;;;;;;;5015035;28;20029;-78
2023/07/17 07:05:23;;;;;;;3.47;3.00;;;;;;;;;;5019717;28;20026;-77
2023/07/17 07:07:48;;;;;;;8.98;3.15;;;;;;;;;;5024297;28;20026;-77
2023/07/17 07:10:14;;;;;;;4.15;3.05;;;;;;;;;;5016903;28;20022;-78
2023/07/17 07:12:39;;;;;;;5.93;3.10;;;;;;;;;;5029287;28;20581;-77
2023/07/17 07:15:06;;;;;;;4.20;2.80;;;;;;;;;;5014582;28;20161;-77
2023/07/17 07:17:32;;;;;;;4.30;2.90;;;;;;;;;;5017877;28;20025;-78
2023/07/17 07:19:57;;;;;;;5.65;3.25;;;;;;;;;;5019064;28;20025;-78
2023/07/17 07:22:22;;;;;;;3.30;2.35;;;;;;;;;;5029771;28;20013;-78
2023/07/17 07:24:48;;;;;;;3.70;2.97;;;;;;;;;;5009539;28;20026;-78
2023/07/17 07:27:13;;;;;;;3.75;2.55;;;;;;;;;;5013309;28;20477;-78
2023/07/17 07:29:38;;;;;;;5.22;2.75;;;;;;;;;;5012316;28;20514;-78
2023/07/17 07:32:04;;;;;;;3.28;2.80;;;;;;;;;;5035098;28;20034;-78
2023/07/17 07:34:30;;;;;;;4.18;3.30;;;;;;;;;;5025136;28;20030;-78
2023/07/17 07:36:55;;;;;;;5.53;2.80;;;;;;;;;;5031533;28;20041;-78
2023/07/17 07:39:20;;;;;;;3.78;2.80;;;;;;;;;;5042331;28;20049;-78
2023/07/17 07:41:46;;;;;;;6.90;2.88;;;;;;;;;;5027543;28;20060;-77
2023/07/17 07:44:11;;;;;;;6.97;2.78;;;;;;;;;;5025098;28;20085;-78
2023/07/17 07:46:36;;;;;;;3.25;2.70;;;;;;;;;;5025521;28;20033;-77
2023/07/17 07:49:03;;;;;;;5.05;2.83;;;;;;;;;;5041184;28;20303;-79
2023/07/17 07:51:28;;;;;;;12.57;2.90;;;;;;;;;;5038190;28;20053;-79
2023/07/17 07:53:53;;;;;;;5.88;2.33;;;;;;;;;;5038864;28;20026;-78
2023/07/17 07:56:19;;;;;;;4.28;2.78;;;;;;;;;;5016927;28;20057;-78
2023/07/17 07:58:44;;;;;;;3.35;2.60;;;;;;;;;;5019712;28;20333;-78
2023/07/17 08:01:09;;;;;;;3.72;2.80;;;;;;;;;;5034437;28;20088;-78
2023/07/17 08:03:35;;;;;;;4.72;2.70;;;;;;;;;;5032544;28;20106;-79
2023/07/17 08:06:00;;;;;;;3.88;3.10;;;;;;;;;;5020037;28;20021;-78
2023/07/17 08:08:25;;;;;;;6.28;2.95;;;;;;;;;;5019166;28;20098;-78
2023/07/17 08:10:52;;;;;;;5.35;2.55;;;;;;;;;;5044091;28;20267;-78
2023/07/17 08:13:18;;;;;;;3.75;2.72;;;;;;;;;;5025612;28;20030;-79
2023/07/17 08:15:43;;;;;;;5.22;2.47;;;;;;;;;;5040684;28;20034;-78
2023/07/17 08:18:08;;;;;;;5.07;3.30;;;;;;;;;;5024427;28;20029;-79
2023/07/17 08:20:33;;;;;;;4.45;2.60;;;;;;;;;;5025635;28;20080;-78
2023/07/17 08:22:59;;;;;;;3.20;2.25;;;;;;;;;;5032052;28;20108;-79
2023/07/17 08:25:24;;;;;;;4.20;3.03;;;;;;;;;;5020142;28;20022;-78
2023/07/17 08:27:49;;;;;;;4.97;2.60;;;;;;;;;;5039510;28;20053;-78
2023/07/17 08:30:15;;;;;;;4.53;2.90;;;;;;;;;;5028106;28;20083;-79
2023/07/17 08:32:40;;;;;;;4.05;2.30;;;;;;;;;;5029838;28;20025;-79
2023/07/17 08:35:06;;;;;;;5.03;2.67;;;;;;;;;;5030726;28;20098;-80
2023/07/17 08:37:31;;;;;;;5.63;2.58;;;;;;;;;;5033896;28;20098;-79
2023/07/17 08:39:57;;;;;;;5.22;2.70;;;;;;;;;;5020356;28;20029;-78
2023/07/17 08:42:22;;;;;;;5.43;2.45;;;;;;;;;;5013001;28;20034;-78
2023/07/17 08:44:49;;;;;;;3.47;2.20;;;;;;;;;;5030897;28;20029;-78
2023/07/17 08:47:15;;;;;;;4.28;2.20;;;;;;;;;;5021887;28;20045;-78
2023/07/17 08:49:42;;;;;;;5.25;2.40;;;;;;;;;;5031163;28;20048;-78
2023/07/17 08:52:10;;;;;;;3.03;2.50;;;;;;;;;;5025724;28;20026;-80
2023/07/17 08:54:36;;;;;;;2.40;2.20;;;;;;;;;;5029852;28;20057;-79
2023/07/17 08:57:03;;;;;;;5.25;2.53;;;;;;;;;;5046036;28;20033;-80
2023/07/17 08:59:30;;;;;;;3.25;2.78;;;;;;;;;;5024695;28;20178;-79
2023/07/17 09:01:55;;;;;;;2.90;2.35;;;;;;;;;;5017134;28;20018;-79
2023/07/17 09:04:21;;;;;;;4.13;2.60;;;;;;;;;;5029532;28;20056;-78
2023/07/17 09:06:46;;;;;;;5.85;2.80;;;;;;;;;;5025231;28;20108;-79
2023/07/17 09:09:12;;;;;;;3.85;2.33;;;;;;;;;;5022340;28;20040;-77
2023/07/17 09:11:37;;;;;;;3.15;2.33;;;;;;;;;;5022211;28;20045;-77
2023/07/17 09:14:03;;;;;;;2.80;2.50;;;;;;;;;;5026691;28;20035;-77
2023/07/17 09:16:29;;;;;;;3.42;1.90;;;;;;;;;;5036905;28;20036;-76
2023/07/17 09:18:54;;;;;;;2.78;2.30;;;;;;;;;;5025051;28;20095;-77
2023/07/17 09:21:22;;;;;;;3.60;2.40;;;;;;;;;;5023141;28;20023;-79
2023/07/17 09:23:54;;;;;;;2.80;2.38;;;;;;;;;;5023070;28;20525;-77
2023/07/17 09:26:22;;;;;;;2.22;2.00;;;;;;;;;;5027589;28;20021;-77
2023/07/17 09:28:49;;;;;;;2.35;2.15;;;;;;;;;;5025137;28;20048;-77
2023/07/17 09:31:28;;;;;;;2.00;1.85;;;;;;;;;;5032823;28;20160;-77
2023/07/17 09:33:57;;;;;;;2.35;2.10;;;;;;;;;;5023069;28;20393;-77
2023/07/17 09:36:23;;;;;;;3.63;2.50;;;;;;;;;;5022226;28;20080;-77
2023/07/17 09:38:53;;;;;;;3.35;2.10;;;;;;;;;;5024765;28;20513;-77
2023/07/17 09:41:28;;;;;;;4.03;2.20;;;;;;;;;;5023093;28;20014;-78
2023/07/17 09:44:05;;;;;;;4.13;2.20;;;;;;;;;;5031793;28;20372;-77
2023/07/17 09:46:31;;;;;;;2.13;2.00;;;;;;;;;;5010456;28;20049;-77
2023/07/17 09:48:57;;;;;;;5.07;2.50;;;;;;;;;;5024419;28;20033;-79
2023/07/17 09:51:23;;;;;;;5.05;2.30;;;;;;;;;;5031532;28;20032;-83
2023/07/17 09:53:49;;;;;;;2.90;2.38;;;;;;;;;;5054866;28;20064;-82
2023/07/17 09:56:16;;;;;;;4.78;2.22;;;;;;;;;;5038086;28;20021;-82
2023/07/17 09:58:50;;;;;;;5.20;2.78;;;;;;;;;;5038147;28;20021;-82
2023/07/17 10:01:18;;;;;;;4.55;2.28;;;;;;;;;;5035462;28;20477;-81
2023/07/17 10:03:48;;;;;;;6.60;2.40;;;;;;;;;;5037389;28;20026;-80
2023/07/17 10:06:15;;;;;;;3.65;2.47;;;;;;;;;;5051972;28;20017;-82
2023/07/17 10:08:44;;;;;;;5.50;2.60;;;;;;;;;;5052166;28;20056;-80
2023/07/17 10:11:09;;;;;;;3.15;2.30;;;;;;;;;;5036627;28;20039;-83
2023/07/17 10:13:35;;;;;;;3.35;2.50;;;;;;;;;;5052770;28;20115;-78
2023/07/17 10:16:01;;;;;;;2.78;2.40;;;;;;;;;;5052631;28;20017;-79
2023/07/17 10:18:26;;;;;;;2.60;2.33;;;;;;;;;;5037816;28;20052;-81
2023/07/17 10:20:55;;;;;;;3.35;2.40;;;;;;;;;;5052773;28;20040;-81
2023/07/17 10:23:27;;;;;;;3.45;2.20;;;;;;;;;;5052572;28;20112;-81
2023/07/17 10:26:06;;;;;;;2.67;2.20;;;;;;;;;;5052113;28;20014;-81
2023/07/17 10:28:34;;;;;;;4.88;2.20;;;;;;;;;;5052944;28;20052;-81
2023/07/17 10:31:09;;;;;;;3.55;2.60;;;;;;;;;;5051919;28;20083;-81
2023/07/17 10:33:38;;;;;;;4.78;2.20;;;;;;;;;;5037780;28;20398;-81
2023/07/17 10:36:03;;;;;;;3.70;2.58;;;;;;;;;;5037271;28;20149;-81
2023/07/17 10:38:39;;;;;;;5.10;2.60;;;;;;;;;;5053419;28;20514;-81
2023/07/17 10:41:05;;;;;;;2.60;2.40;;;;;;;;;;5052322;28;20036;-81
2023/07/17 10:43:32;;;;;;;3.70;2.30;;;;;;;;;;5052571;28;20053;-81
2023/07/17 10:45:58;;;;;;;2.35;2.15;;;;;;;;;;5052785;28;20045;-81
2023/07/17 10:48:33;;;;;;;5.68;2.63;;;;;;;;;;5052308;28;20026;-79
2023/07/17 10:50:58;;;;;;;5.22;2.47;;;;;;;;;;5037388;28;20029;-83
2023/07/17 10:53:24;;;;;;;4.93;2.40;;;;;;;;;;5052981;28;20028;-78
2023/07/17 10:55:49;;;;;;;3.30;2.40;;;;;;;;;;5051341;28;20030;-81
2023/07/17 10:58:18;;;;;;;3.72;2.33;;;;;;;;;;5055982;28;20405;-80
2023/07/17 11:00:44;;;;;;;2.42;2.22;;;;;;;;;;5040713;28;20397;-82
2023/07/17 11:03:13;;;;;;;4.53;2.60;;;;;;;;;;5041084;28;20047;-79
2023/07/17 11:05:39;;;;;;;7.57;2.72;;;;;;;;;;5055540;28;20060;-81
2023/07/17 11:08:06;;;;;;;3.25;2.70;;;;;;;;;;5042982;28;20030;-81
2023/07/17 11:10:32;;;;;;;3.60;2.60;;;;;;;;;;5042984;28;20446;-82
2023/07/17 11:13:03;;;;;;;3.55;2.60;;;;;;;;;;5055661;28;20060;-82
2023/07/17 11:15:32;;;;;;;4.40;2.42;;;;;;;;;;5059012;28;20152;-81
2023/07/17 11:17:59;;;;;;;8.95;3.00;;;;;;;;;;5058224;28;20068;-81
2023/07/17 11:20:25;;;;;;;3.00;2.65;;;;;;;;;;5057773;28;20260;-81
2023/07/17 11:22:50;;;;;;;8.43;2.90;;;;;;;;;;5042202;28;20474;-80
2023/07/17 11:25:16;;;;;;;4.18;2.95;;;;;;;;;;5040747;28;20030;-81
2023/07/17 11:27:42;;;;;;;8.35;2.88;;;;;;;;;;5041394;28;20049;-81
2023/07/17 11:30:19;;;;;;;3.55;2.65;;;;;;;;;;5056816;28;20029;-81
2023/07/17 11:32:50;;;;;;;3.53;2.58;;;;;;;;;;5057422;28;20433;-81
2023/07/17 11:35:18;;;;;;;3.97;2.70;;;;;;;;;;5041501;28;20068;-80
2023/07/17 11:37:44;;;;;;;3.20;2.25;;;;;;;;;;5042340;28;20056;-81
2023/07/17 11:40:10;;;;;;;4.13;3.03;;;;;;;;;;5057918;28;20369;-81
2023/07/17 11:42:55;;;;;;;4.80;2.78;;;;;;;;;;5042373;28;20032;-81
2023/07/17 11:45:23;;;;;;;3.38;2.72;;;;;;;;;;5041513;28;20021;-81
2023/07/17 11:47:49;;;;;;;4.13;2.50;;;;;;;;;;5057430;28;20035;-81
2023/07/17 11:50:18;;;;;;;4.10;2.88;;;;;;;;;;5058340;28;20029;-81
2023/07/17 11:52:44;;;;;;;4.82;2.75;;;;;;;;;;5056714;28;20021;-81
2023/07/17 11:55:09;;;;;;;4.55;2.40;;;;;;;;;;5058107;28;20094;-78
2023/07/17 11:57:34;;;;;;;7.40;2.47;;;;;;;;;;5056311;28;20022;-79
2023/07/17 12:00:04;;;;;;;5.50;2.70;;;;;;;;;;5057893;28;20551;-81
2023/07/17 12:02:30;;;;;;;4.60;2.83;;;;;;;;;;5054681;28;20214;-80
2023/07/17 12:05:00;;;;;;;5.10;2.70;;;;;;;;;;5026732;28;20496;-80
2023/07/17 12:07:25;;;;;;;8.70;2.55;;;;;;;;;;5028806;28;20410;-80
2023/07/17 12:09:50;;;;;;;2.95;2.67;;;;;;;;;;5018318;28;20029;-79
2023/07/17 12:12:16;;;;;;;8.02;3.00;;;;;;;;;;5027114;28;20061;-81
2023/07/17 12:14:41;;;;;;;3.13;2.47;;;;;;;;;;5022189;28;20059;-78
2023/07/17 12:17:07;;;;;;;3.88;2.75;;;;;;;;;;5037558;28;20457;-80
2023/07/17 12:19:32;;;;;;;3.55;2.90;;;;;;;;;;5035449;28;20034;-80
2023/07/17 12:21:57;;;;;;;4.10;2.63;;;;;;;;;;5026693;28;20473;-80
2023/07/17 12:24:22;;;;;;;5.13;3.00;;;;;;;;;;5031720;28;20054;-79
2023/07/17 12:26:48;;;;;;;3.00;2.70;;;;;;;;;;5045543;28;20021;-80
2023/07/17 12:29:13;;;;;;;5.68;2.90;;;;;;;;;;5026387;28;20390;-80
2023/07/17 12:31:38;;;;;;;8.70;2.65;;;;;;;;;;5028507;28;20060;-79
2023/07/17 12:34:04;;;;;;;2.78;2.53;;;;;;;;;;5025147;28;20421;-79
2023/07/17 12:36:29;;;;;;;6.22;2.88;;;;;;;;;;5044859;28;20030;-77
2023/07/17 12:39:11;;;;;;;4.55;2.80;;;;;;;;;;5025154;28;20049;-78
2023/07/17 12:41:37;;;;;;;5.65;2.83;;;;;;;;;;5032373;28;20027;-79
2023/07/17 12:44:02;;;;;;;5.15;2.95;;;;;;;;;;5048020;28;20469;-80
2023/07/17 12:46:27;;;;;;;3.42;2.60;;;;;;;;;;5028432;28;20021;-76
2023/07/17 12:48:53;;;;;;;5.18;2.90;;;;;;;;;;5040120;28;20041;-79
2023/07/17 12:51:18;;;;;;;7.32;2.83;;;;;;;;;;5023280;28;20021;-80
2023/07/17 12:53:43;;;;;;;5.45;2.92;;;;;;;;;;5027635;28;20036;-79
2023/07/17 12:56:09;;;;;;;5.38;2.85;;;;;;;;;;5022438;28;20036;-76
2023/07/17 12:58:34;;;;;;;3.97;2.67;;;;;;;;;;5030122;28;20052;-78
2023/07/17 13:01:00;;;;;;;8.07;3.22;;;;;;;;;;5037646;28;20532;-79
2023/07/17 13:03:25;;;;;;;7.25;2.78;;;;;;;;;;5021735;28;20021;-80
2023/07/17 13:05:50;;;;;;;4.25;3.05;;;;;;;;;;5023919;28;20044;-79
2023/07/17 13:08:16;;;;;;;4.22;3.00;;;;;;;;;;5023424;28;20010;-76
2023/07/17 13:10:42;;;;;;;4.35;2.70;;;;;;;;;;5044439;28;20029;-80
2023/07/17 13:13:07;;;;;;;3.70;2.97;;;;;;;;;;5048856;28;20026;-79
2023/07/17 13:15:32;;;;;;;4.45;2.92;;;;;;;;;;5023915;28;20112;-78
2023/07/17 13:17:58;;;;;;;4.15;2.47;;;;;;;;;;5014403;28;20038;-77
2023/07/17 13:20:23;;;;;;;4.78;2.70;;;;;;;;;;5028300;28;20081;-77
2023/07/17 13:22:48;;;;;;;4.15;2.97;;;;;;;;;;5034843;28;20037;-77
2023/07/17 13:25:13;;;;;;;4.05;3.00;;;;;;;;;;5052440;28;20718;-75
2023/07/17 13:27:39;;;;;;;6.20;2.80;;;;;;;;;;5035092;28;20120;-77
2023/07/17 13:30:06;;;;;;;4.15;3.08;;;;;;;;;;5044003;28;20036;-76
2023/07/17 13:32:31;;;;;;;4.65;2.88;;;;;;;;;;5032750;28;20022;-77
2023/07/17 13:34:56;;;;;;;4.13;2.50;;;;;;;;;;5031694;28;20064;-76
2023/07/17 13:37:22;;;;;;;3.95;2.83;;;;;;;;;;5041390;28;20225;-77
2023/07/17 13:39:47;;;;;;;5.00;2.90;;;;;;;;;;5040734;28;20039;-75
2023/07/17 13:42:12;;;;;;;6.72;3.20;;;;;;;;;;5029257;28;20025;-77
2023/07/17 13:44:37;;;;;;;3.78;3.10;;;;;;;;;;5025499;28;20116;-77
2023/07/17 13:47:03;;;;;;;4.68;2.60;;;;;;;;;;5026794;28;20047;-82
2023/07/17 13:49:28;;;;;;;5.80;3.10;;;;;;;;;;5028146;28;20061;-79
2023/07/17 13:51:54;;;;;;;2.75;2.45;;;;;;;;;;5019054;28;20098;-78
2023/07/17 13:54:19;;;;;;;7.43;3.00;;;;;;;;;;5030125;28;20028;-78
2023/07/17 13:56:44;;;;;;;5.53;3.08;;;;;;;;;;5027501;28;20025;-79
2023/07/17 13:59:10;;;;;;;4.53;3.00;;;;;;;;;;5037071;28;20176;-80
2023/07/17 14:01:35;;;;;;;6.72;3.10;;;;;;;;;;5046949;28;20047;-80
2023/07/17 14:04:04;;;;;;;6.97;3.38;;;;;;;;;;5038162;28;20037;-79
2023/07/17 14:06:32;;;;;;;5.68;3.35;;;;;;;;;;5035879;28;20030;-78
2023/07/17 14:08:58;;;;;;;6.63;3.20;;;;;;;;;;5031000;28;20052;-80
2023/07/17 14:11:24;;;;;;;4.40;2.92;;;;;;;;;;5007652;28;20022;-79
2023/07/17 14:13:49;;;;;;;5.63;2.97;;;;;;;;;;5023041;28;20029;-79
2023/07/17 14:16:14;;;;;;;3.47;2.80;;;;;;;;;;5023137;28;20616;-80
2023/07/17 14:18:39;;;;;;;7.22;2.88;;;;;;;;;;5018473;28;20024;-79
2023/07/17 14:21:06;;;;;;;9.27;3.35;;;;;;;;;;5014482;28;20132;-79
2023/07/17 14:23:33;;;;;;;3.92;2.90;;;;;;;;;;5036501;28;20042;-78
2023/07/17 14:25:59;;;;;;;7.03;3.05;;;;;;;;;;5015198;28;20520;-79
2023/07/17 14:28:24;;;;;;;7.53;3.40;;;;;;;;;;5030892;28;20022;-78
2023/07/17 14:30:49;;;;;;;4.68;3.50;;;;;;;;;;5029797;28;20021;-80
2023/07/17 14:33:14;;;;;;;5.22;3.25;;;;;;;;;;5030298;28;20398;-79